sensor_id;sensor_type;location;lat;lon;timestamp;P1;durP1;ratioP1;P2;durP2;ratioP2
42294;SDS011;27947;47.556;18.718;2023-04-29T00:02:08;14.95;;;6.55;;
42294;SDS011;27947;47.556;18.718;2023-04-29T00:04:34;17.58;;;7.07;;
42294;SDS011;27947;47.556;18.718;2023-04-29T00:06:59;13.40;;;7.45;;
42294;SDS011;27947;47.556;18.718;2023-04-29T00:09:24;14.05;;;6.95;;
42294;SDS011;27947;47.556;18.718;2023-04-29T00:11:50;13.85;;;6.85;;
42294;SDS011;27947;47.556;18.718;2023-04-29T00:14:15;17.52;;;6.60;;
42294;SDS011;27947;47.556;18.718;2023-04-29T00:16:41;16.60;;;6.78;;
42294;SDS011;27947;47.556;18.718;2023-04-29T00:19:06;13.35;;;6.28;;
42294;SDS011;27947;47.556;18.718;2023-04-29T00:21:32;13.70;;;6.28;;
42294;SDS011;27947;47.556;18.718;2023-04-29T00:23:57;14.68;;;6.63;;
42294;SDS011;27947;47.556;18.718;2023-04-29T00:26:22;11.10;;;5.55;;
42294;SDS011;27947;47.556;18.718;2023-04-29T00:28:48;14.00;;;6.18;;
42294;SDS011;27947;47.556;18.718;2023-04-29T00:31:13;13.32;;;6.25;;
42294;SDS011;27947;47.556;18.718;2023-04-29T00:33:39;13.85;;;6.38;;
42294;SDS011;27947;47.556;18.718;2023-04-29T00:36:05;16.70;;;7.22;;
42294;SDS011;27947;47.556;18.718;2023-04-29T00:38:30;16.48;;;6.80;;
42294;SDS011;27947;47.556;18.718;2023-04-29T00:40:56;16.33;;;6.90;;
42294;SDS011;27947;47.556;18.718;2023-04-29T00:43:21;12.77;;;6.70;;
42294;SDS011;27947;47.556;18.718;2023-04-29T00:45:47;16.77;;;6.75;;
42294;SDS011;27947;47.556;18.718;2023-04-29T00:48:13;19.27;;;7.05;;
42294;SDS011;27947;47.556;18.718;2023-04-29T00:50:40;22.38;;;7.88;;
42294;SDS011;27947;47.556;18.718;2023-04-29T00:53:06;19.27;;;7.25;;
42294;SDS011;27947;47.556;18.718;2023-04-29T00:55:32;17.70;;;7.30;;
42294;SDS011;27947;47.556;18.718;2023-04-29T00:57:57;16.38;;;7.10;;
42294;SDS011;27947;47.556;18.718;2023-04-29T01:00:23;16.88;;;7.50;;
42294;SDS011;27947;47.556;18.718;2023-04-29T01:02:51;19.73;;;7.88;;
42294;SDS011;27947;47.556;18.718;2023-04-29T01:05:16;15.80;;;7.28;;
42294;SDS011;27947;47.556;18.718;2023-04-29T01:07:44;15.65;;;6.43;;
42294;SDS011;27947;47.556;18.718;2023-04-29T01:10:21;14.82;;;6.65;;
42294;SDS011;27947;47.556;18.718;2023-04-29T01:15:21;15.35;;;6.20;;
42294;SDS011;27947;47.556;18.718;2023-04-29T01:17:55;13.45;;;6.20;;
42294;SDS011;27947;47.556;18.718;2023-04-29T01:20:24;15.45;;;6.22;;
42294;SDS011;27947;47.556;18.718;2023-04-29T01:22:50;21.08;;;6.72;;
42294;SDS011;27947;47.556;18.718;2023-04-29T01:25:15;15.82;;;6.57;;
42294;SDS011;27947;47.556;18.718;2023-04-29T01:30:52;15.30;;;6.78;;
42294;SDS011;27947;47.556;18.718;2023-04-29T01:38:43;17.35;;;7.22;;
42294;SDS011;27947;47.556;18.718;2023-04-29T01:43:34;12.43;;;5.85;;
42294;SDS011;27947;47.556;18.718;2023-04-29T01:46:08;18.25;;;7.30;;
42294;SDS011;27947;47.556;18.718;2023-04-29T01:48:34;20.10;;;7.53;;
42294;SDS011;27947;47.556;18.718;2023-04-29T01:51:00;16.60;;;7.00;;
42294;SDS011;27947;47.556;18.718;2023-04-29T01:53:26;20.08;;;7.13;;
42294;SDS011;27947;47.556;18.718;2023-04-29T01:55:51;16.25;;;6.97;;
42294;SDS011;27947;47.556;18.718;2023-04-29T01:58:39;16.05;;;7.18;;
42294;SDS011;27947;47.556;18.718;2023-04-29T02:01:13;16.58;;;7.68;;
42294;SDS011;27947;47.556;18.718;2023-04-29T02:03:39;17.77;;;6.40;;
42294;SDS011;27947;47.556;18.718;2023-04-29T02:06:07;18.27;;;6.82;;
42294;SDS011;27947;47.556;18.718;2023-04-29T02:08:34;20.50;;;7.55;;
42294;SDS011;27947;47.556;18.718;2023-04-29T02:10:59;17.98;;;7.93;;
42294;SDS011;27947;47.556;18.718;2023-04-29T02:13:45;16.55;;;7.78;;
42294;SDS011;27947;47.556;18.718;2023-04-29T02:16:13;22.55;;;7.78;;
42294;SDS011;27947;47.556;18.718;2023-04-29T02:18:46;21.48;;;8.10;;
42294;SDS011;27947;47.556;18.718;2023-04-29T02:21:11;17.17;;;8.00;;
42294;SDS011;27947;47.556;18.718;2023-04-29T02:23:37;18.15;;;7.53;;
42294;SDS011;27947;47.556;18.718;2023-04-29T02:26:02;18.77;;;7.90;;
42294;SDS011;27947;47.556;18.718;2023-04-29T02:28:30;20.70;;;8.30;;
42294;SDS011;27947;47.556;18.718;2023-04-29T02:30:56;18.23;;;8.13;;
42294;SDS011;27947;47.556;18.718;2023-04-29T02:33:21;18.38;;;8.15;;
42294;SDS011;27947;47.556;18.718;2023-04-29T02:35:47;23.83;;;8.65;;
42294;SDS011;27947;47.556;18.718;2023-04-29T02:38:14;17.13;;;7.45;;
42294;SDS011;27947;47.556;18.718;2023-04-29T02:40:43;21.77;;;9.10;;
42294;SDS011;27947;47.556;18.718;2023-04-29T02:43:09;20.73;;;7.47;;
42294;SDS011;27947;47.556;18.718;2023-04-29T02:45:35;16.63;;;7.82;;
42294;SDS011;27947;47.556;18.718;2023-04-29T02:48:00;19.25;;;8.07;;
42294;SDS011;27947;47.556;18.718;2023-04-29T02:50:26;18.30;;;7.65;;
42294;SDS011;27947;47.556;18.718;2023-04-29T02:52:53;16.95;;;7.82;;
42294;SDS011;27947;47.556;18.718;2023-04-29T02:55:18;20.35;;;8.50;;
42294;SDS011;27947;47.556;18.718;2023-04-29T02:57:44;17.17;;;8.00;;
42294;SDS011;27947;47.556;18.718;2023-04-29T03:00:09;18.02;;;7.88;;
42294;SDS011;27947;47.556;18.718;2023-04-29T03:02:35;22.67;;;8.48;;
42294;SDS011;27947;47.556;18.718;2023-04-29T03:05:00;21.58;;;8.60;;
42294;SDS011;27947;47.556;18.718;2023-04-29T03:07:26;25.77;;;8.82;;
42294;SDS011;27947;47.556;18.718;2023-04-29T03:09:52;22.77;;;9.00;;
42294;SDS011;27947;47.556;18.718;2023-04-29T03:12:18;23.70;;;8.93;;
42294;SDS011;27947;47.556;18.718;2023-04-29T03:14:45;25.52;;;8.35;;
42294;SDS011;27947;47.556;18.718;2023-04-29T03:17:11;24.75;;;9.00;;
42294;SDS011;27947;47.556;18.718;2023-04-29T03:19:37;21.05;;;8.52;;
42294;SDS011;27947;47.556;18.718;2023-04-29T03:22:02;16.60;;;7.80;;
42294;SDS011;27947;47.556;18.718;2023-04-29T03:24:28;24.80;;;8.60;;
42294;SDS011;27947;47.556;18.718;2023-04-29T03:26:53;22.73;;;9.50;;
42294;SDS011;27947;47.556;18.718;2023-04-29T03:29:20;21.70;;;8.75;;
42294;SDS011;27947;47.556;18.718;2023-04-29T03:31:46;21.73;;;8.50;;
42294;SDS011;27947;47.556;18.718;2023-04-29T03:34:11;21.20;;;8.27;;
42294;SDS011;27947;47.556;18.718;2023-04-29T03:36:42;19.23;;;9.05;;
42294;SDS011;27947;47.556;18.718;2023-04-29T03:39:07;23.58;;;8.23;;
42294;SDS011;27947;47.556;18.718;2023-04-29T03:41:33;19.20;;;8.43;;
42294;SDS011;27947;47.556;18.718;2023-04-29T03:43:58;34.42;;;9.10;;
42294;SDS011;27947;47.556;18.718;2023-04-29T03:46:27;28.92;;;9.18;;
42294;SDS011;27947;47.556;18.718;2023-04-29T03:48:52;21.85;;;8.05;;
42294;SDS011;27947;47.556;18.718;2023-04-29T03:51:21;17.75;;;7.95;;
42294;SDS011;27947;47.556;18.718;2023-04-29T03:53:48;16.48;;;7.18;;
42294;SDS011;27947;47.556;18.718;2023-04-29T03:56:14;18.25;;;7.30;;
42294;SDS011;27947;47.556;18.718;2023-04-29T03:58:39;19.67;;;7.90;;
42294;SDS011;27947;47.556;18.718;2023-04-29T04:01:05;19.27;;;7.63;;
42294;SDS011;27947;47.556;18.718;2023-04-29T04:03:37;20.73;;;7.32;;
42294;SDS011;27947;47.556;18.718;2023-04-29T04:06:03;16.38;;;7.45;;
42294;SDS011;27947;47.556;18.718;2023-04-29T04:08:28;16.20;;;6.88;;
42294;SDS011;27947;47.556;18.718;2023-04-29T04:10:59;16.70;;;7.05;;
42294;SDS011;27947;47.556;18.718;2023-04-29T04:13:41;14.90;;;6.53;;
42294;SDS011;27947;47.556;18.718;2023-04-29T04:16:10;19.60;;;7.63;;
42294;SDS011;27947;47.556;18.718;2023-04-29T04:18:36;21.50;;;8.07;;
42294;SDS011;27947;47.556;18.718;2023-04-29T04:21:09;19.58;;;7.20;;
42294;SDS011;27947;47.556;18.718;2023-04-29T04:23:36;15.70;;;7.30;;
42294;SDS011;27947;47.556;18.718;2023-04-29T04:26:05;19.42;;;7.90;;
42294;SDS011;27947;47.556;18.718;2023-04-29T04:28:49;16.42;;;7.15;;
42294;SDS011;27947;47.556;18.718;2023-04-29T04:31:22;16.02;;;7.10;;
42294;SDS011;27947;47.556;18.718;2023-04-29T04:33:48;17.60;;;7.53;;
42294;SDS011;27947;47.556;18.718;2023-04-29T04:36:14;21.13;;;7.68;;
42294;SDS011;27947;47.556;18.718;2023-04-29T04:38:40;16.40;;;7.53;;
42294;SDS011;27947;47.556;18.718;2023-04-29T04:41:09;22.20;;;7.60;;
42294;SDS011;27947;47.556;18.718;2023-04-29T04:43:36;20.42;;;7.65;;
42294;SDS011;27947;47.556;18.718;2023-04-29T04:46:10;17.58;;;7.72;;
42294;SDS011;27947;47.556;18.718;2023-04-29T04:48:38;20.35;;;7.28;;
42294;SDS011;27947;47.556;18.718;2023-04-29T04:51:07;17.08;;;7.30;;
42294;SDS011;27947;47.556;18.718;2023-04-29T04:53:33;22.90;;;8.38;;
42294;SDS011;27947;47.556;18.718;2023-04-29T04:56:04;22.08;;;7.63;;
42294;SDS011;27947;47.556;18.718;2023-04-29T04:58:31;22.02;;;8.32;;
42294;SDS011;27947;47.556;18.718;2023-04-29T05:00:57;17.08;;;7.93;;
42294;SDS011;27947;47.556;18.718;2023-04-29T05:03:22;18.05;;;8.43;;
42294;SDS011;27947;47.556;18.718;2023-04-29T05:05:55;19.02;;;8.13;;
42294;SDS011;27947;47.556;18.718;2023-04-29T05:08:21;20.08;;;8.10;;
42294;SDS011;27947;47.556;18.718;2023-04-29T05:10:47;17.75;;;7.07;;
42294;SDS011;27947;47.556;18.718;2023-04-29T05:13:13;19.70;;;7.30;;
42294;SDS011;27947;47.556;18.718;2023-04-29T05:15:39;16.70;;;7.47;;
42294;SDS011;27947;47.556;18.718;2023-04-29T05:18:05;13.43;;;6.95;;
42294;SDS011;27947;47.556;18.718;2023-04-29T05:20:31;18.45;;;7.57;;
42294;SDS011;27947;47.556;18.718;2023-04-29T05:22:59;18.48;;;7.75;;
42294;SDS011;27947;47.556;18.718;2023-04-29T05:25:25;20.48;;;7.65;;
42294;SDS011;27947;47.556;18.718;2023-04-29T05:27:52;17.80;;;7.72;;
42294;SDS011;27947;47.556;18.718;2023-04-29T05:30:19;17.95;;;7.35;;
42294;SDS011;27947;47.556;18.718;2023-04-29T05:32:45;17.33;;;7.22;;
42294;SDS011;27947;47.556;18.718;2023-04-29T05:35:14;20.55;;;8.00;;
42294;SDS011;27947;47.556;18.718;2023-04-29T05:37:40;15.35;;;7.03;;
42294;SDS011;27947;47.556;18.718;2023-04-29T05:40:24;18.88;;;8.00;;
42294;SDS011;27947;47.556;18.718;2023-04-29T05:42:53;16.67;;;7.75;;
42294;SDS011;27947;47.556;18.718;2023-04-29T05:45:20;20.92;;;8.30;;
42294;SDS011;27947;47.556;18.718;2023-04-29T05:47:47;17.25;;;7.10;;
42294;SDS011;27947;47.556;18.718;2023-04-29T05:50:13;13.75;;;6.82;;
42294;SDS011;27947;47.556;18.718;2023-04-29T05:52:38;22.05;;;7.72;;
42294;SDS011;27947;47.556;18.718;2023-04-29T05:55:04;19.23;;;7.45;;
42294;SDS011;27947;47.556;18.718;2023-04-29T05:57:29;18.75;;;6.30;;
42294;SDS011;27947;47.556;18.718;2023-04-29T05:59:55;17.13;;;6.72;;
42294;SDS011;27947;47.556;18.718;2023-04-29T06:02:20;12.88;;;6.05;;
42294;SDS011;27947;47.556;18.718;2023-04-29T06:04:46;11.95;;;6.68;;
42294;SDS011;27947;47.556;18.718;2023-04-29T06:07:20;16.67;;;6.57;;
42294;SDS011;27947;47.556;18.718;2023-04-29T06:09:49;17.20;;;6.30;;
42294;SDS011;27947;47.556;18.718;2023-04-29T06:12:14;17.42;;;6.32;;
42294;SDS011;27947;47.556;18.718;2023-04-29T06:14:41;13.40;;;5.75;;
42294;SDS011;27947;47.556;18.718;2023-04-29T06:17:07;11.95;;;5.45;;
42294;SDS011;27947;47.556;18.718;2023-04-29T06:19:32;15.45;;;6.32;;
42294;SDS011;27947;47.556;18.718;2023-04-29T06:21:58;15.25;;;6.97;;
42294;SDS011;27947;47.556;18.718;2023-04-29T06:24:24;11.88;;;6.10;;
42294;SDS011;27947;47.556;18.718;2023-04-29T06:26:49;13.55;;;6.15;;
42294;SDS011;27947;47.556;18.718;2023-04-29T06:29:14;16.35;;;6.28;;
42294;SDS011;27947;47.556;18.718;2023-04-29T06:31:40;35.60;;;8.13;;
42294;SDS011;27947;47.556;18.718;2023-04-29T06:34:06;21.00;;;6.28;;
42294;SDS011;27947;47.556;18.718;2023-04-29T06:36:36;13.27;;;6.32;;
42294;SDS011;27947;47.556;18.718;2023-04-29T06:39:21;11.50;;;6.30;;
42294;SDS011;27947;47.556;18.718;2023-04-29T06:42:05;12.95;;;6.50;;
42294;SDS011;27947;47.556;18.718;2023-04-29T06:44:57;17.80;;;6.97;;
42294;SDS011;27947;47.556;18.718;2023-04-29T06:47:38;13.57;;;5.93;;
42294;SDS011;27947;47.556;18.718;2023-04-29T06:50:11;16.30;;;6.90;;
42294;SDS011;27947;47.556;18.718;2023-04-29T06:52:37;13.43;;;5.90;;
42294;SDS011;27947;47.556;18.718;2023-04-29T06:55:02;14.18;;;6.07;;
42294;SDS011;27947;47.556;18.718;2023-04-29T06:57:28;12.40;;;7.20;;
42294;SDS011;27947;47.556;18.718;2023-04-29T06:59:53;14.40;;;6.85;;
42294;SDS011;27947;47.556;18.718;2023-04-29T07:02:18;12.40;;;6.50;;
42294;SDS011;27947;47.556;18.718;2023-04-29T07:04:45;9.45;;;5.38;;
42294;SDS011;27947;47.556;18.718;2023-04-29T07:07:14;12.60;;;5.80;;
42294;SDS011;27947;47.556;18.718;2023-04-29T07:09:39;13.05;;;6.35;;
42294;SDS011;27947;47.556;18.718;2023-04-29T07:12:05;14.65;;;7.75;;
42294;SDS011;27947;47.556;18.718;2023-04-29T07:14:30;14.15;;;6.38;;
42294;SDS011;27947;47.556;18.718;2023-04-29T07:16:56;17.15;;;7.53;;
42294;SDS011;27947;47.556;18.718;2023-04-29T07:19:21;12.05;;;5.78;;
42294;SDS011;27947;47.556;18.718;2023-04-29T07:21:47;15.15;;;6.00;;
42294;SDS011;27947;47.556;18.718;2023-04-29T07:24:12;16.30;;;6.72;;
42294;SDS011;27947;47.556;18.718;2023-04-29T07:26:38;12.55;;;6.32;;
42294;SDS011;27947;47.556;18.718;2023-04-29T07:29:05;15.48;;;6.65;;
42294;SDS011;27947;47.556;18.718;2023-04-29T07:31:30;11.68;;;6.15;;
42294;SDS011;27947;47.556;18.718;2023-04-29T07:33:56;14.13;;;6.05;;
42294;SDS011;27947;47.556;18.718;2023-04-29T07:36:21;10.43;;;5.20;;
42294;SDS011;27947;47.556;18.718;2023-04-29T07:38:47;9.43;;;5.57;;
42294;SDS011;27947;47.556;18.718;2023-04-29T07:41:13;13.23;;;6.68;;
42294;SDS011;27947;47.556;18.718;2023-04-29T07:43:38;10.07;;;5.28;;
42294;SDS011;27947;47.556;18.718;2023-04-29T07:46:03;9.40;;;5.57;;
42294;SDS011;27947;47.556;18.718;2023-04-29T07:48:29;16.83;;;6.28;;
42294;SDS011;27947;47.556;18.718;2023-04-29T07:50:55;10.50;;;5.50;;
42294;SDS011;27947;47.556;18.718;2023-04-29T07:53:21;10.70;;;5.50;;
42294;SDS011;27947;47.556;18.718;2023-04-29T07:55:48;13.68;;;5.35;;
42294;SDS011;27947;47.556;18.718;2023-04-29T07:58:15;12.13;;;5.30;;
42294;SDS011;27947;47.556;18.718;2023-04-29T08:00:40;12.25;;;7.03;;
42294;SDS011;27947;47.556;18.718;2023-04-29T08:03:06;12.38;;;6.55;;
42294;SDS011;27947;47.556;18.718;2023-04-29T08:05:31;10.13;;;5.90;;
42294;SDS011;27947;47.556;18.718;2023-04-29T08:07:57;12.57;;;6.13;;
42294;SDS011;27947;47.556;18.718;2023-04-29T08:10:24;11.98;;;5.43;;
42294;SDS011;27947;47.556;18.718;2023-04-29T08:12:50;10.68;;;5.20;;
42294;SDS011;27947;47.556;18.718;2023-04-29T08:15:15;9.25;;;6.03;;
42294;SDS011;27947;47.556;18.718;2023-04-29T08:17:42;12.73;;;5.80;;
42294;SDS011;27947;47.556;18.718;2023-04-29T08:20:08;11.55;;;6.28;;
42294;SDS011;27947;47.556;18.718;2023-04-29T08:22:33;12.55;;;5.57;;
42294;SDS011;27947;47.556;18.718;2023-04-29T08:24:59;9.63;;;5.63;;
42294;SDS011;27947;47.556;18.718;2023-04-29T08:27:25;11.40;;;5.32;;
42294;SDS011;27947;47.556;18.718;2023-04-29T08:29:50;8.80;;;5.25;;
42294;SDS011;27947;47.556;18.718;2023-04-29T08:32:16;9.63;;;5.25;;
42294;SDS011;27947;47.556;18.718;2023-04-29T08:34:41;8.07;;;5.20;;
42294;SDS011;27947;47.556;18.718;2023-04-29T08:37:08;10.25;;;5.13;;
42294;SDS011;27947;47.556;18.718;2023-04-29T08:39:34;12.30;;;6.80;;
42294;SDS011;27947;47.556;18.718;2023-04-29T08:41:59;11.25;;;5.32;;
42294;SDS011;27947;47.556;18.718;2023-04-29T08:44:31;11.15;;;5.97;;
42294;SDS011;27947;47.556;18.718;2023-04-29T08:46:58;11.07;;;5.80;;
42294;SDS011;27947;47.556;18.718;2023-04-29T08:49:23;9.85;;;5.80;;
42294;SDS011;27947;47.556;18.718;2023-04-29T08:51:49;10.48;;;5.68;;
42294;SDS011;27947;47.556;18.718;2023-04-29T08:54:15;12.75;;;5.97;;
42294;SDS011;27947;47.556;18.718;2023-04-29T08:56:41;8.85;;;5.32;;
42294;SDS011;27947;47.556;18.718;2023-04-29T08:59:09;8.30;;;4.70;;
42294;SDS011;27947;47.556;18.718;2023-04-29T09:01:34;5.63;;;3.50;;
42294;SDS011;27947;47.556;18.718;2023-04-29T09:04:08;9.07;;;4.20;;
42294;SDS011;27947;47.556;18.718;2023-04-29T09:06:36;9.77;;;3.70;;
42294;SDS011;27947;47.556;18.718;2023-04-29T09:09:02;6.10;;;3.40;;
42294;SDS011;27947;47.556;18.718;2023-04-29T09:11:28;8.75;;;4.72;;
42294;SDS011;27947;47.556;18.718;2023-04-29T09:14:00;7.68;;;3.75;;
42294;SDS011;27947;47.556;18.718;2023-04-29T09:16:26;9.43;;;4.55;;
42294;SDS011;27947;47.556;18.718;2023-04-29T09:18:51;8.30;;;3.65;;
42294;SDS011;27947;47.556;18.718;2023-04-29T09:21:19;10.13;;;4.05;;
42294;SDS011;27947;47.556;18.718;2023-04-29T09:23:45;8.00;;;3.45;;
42294;SDS011;27947;47.556;18.718;2023-04-29T09:26:11;6.50;;;3.95;;
42294;SDS011;27947;47.556;18.718;2023-04-29T09:28:36;9.98;;;4.38;;
42294;SDS011;27947;47.556;18.718;2023-04-29T09:31:04;8.75;;;4.15;;
42294;SDS011;27947;47.556;18.718;2023-04-29T09:33:31;10.43;;;4.40;;
42294;SDS011;27947;47.556;18.718;2023-04-29T09:35:56;11.10;;;4.32;;
42294;SDS011;27947;47.556;18.718;2023-04-29T09:38:22;7.93;;;4.20;;
42294;SDS011;27947;47.556;18.718;2023-04-29T09:40:47;10.90;;;4.30;;
42294;SDS011;27947;47.556;18.718;2023-04-29T09:43:13;8.02;;;4.20;;
42294;SDS011;27947;47.556;18.718;2023-04-29T09:45:45;6.35;;;4.43;;
42294;SDS011;27947;47.556;18.718;2023-04-29T09:48:13;9.75;;;4.72;;
42294;SDS011;27947;47.556;18.718;2023-04-29T09:50:39;7.70;;;4.22;;
42294;SDS011;27947;47.556;18.718;2023-04-29T09:53:05;5.82;;;4.18;;
42294;SDS011;27947;47.556;18.718;2023-04-29T09:55:33;6.95;;;4.00;;
42294;SDS011;27947;47.556;18.718;2023-04-29T09:57:59;11.27;;;4.10;;
42294;SDS011;27947;47.556;18.718;2023-04-29T10:00:25;12.25;;;4.78;;
42294;SDS011;27947;47.556;18.718;2023-04-29T10:02:52;7.68;;;4.45;;
42294;SDS011;27947;47.556;18.718;2023-04-29T10:05:18;9.43;;;4.03;;
42294;SDS011;27947;47.556;18.718;2023-04-29T10:07:45;7.20;;;3.75;;
42294;SDS011;27947;47.556;18.718;2023-04-29T10:10:10;9.45;;;4.20;;
42294;SDS011;27947;47.556;18.718;2023-04-29T10:12:38;7.72;;;4.18;;
42294;SDS011;27947;47.556;18.718;2023-04-29T10:17:37;9.57;;;3.80;;
42294;SDS011;27947;47.556;18.718;2023-04-29T10:20:07;8.95;;;4.18;;
42294;SDS011;27947;47.556;18.718;2023-04-29T10:25:05;8.75;;;4.35;;
42294;SDS011;27947;47.556;18.718;2023-04-29T10:27:31;12.25;;;5.78;;
42294;SDS011;27947;47.556;18.718;2023-04-29T10:29:58;11.60;;;4.68;;
42294;SDS011;27947;47.556;18.718;2023-04-29T10:32:25;9.98;;;4.53;;
42294;SDS011;27947;47.556;18.718;2023-04-29T10:34:52;9.07;;;4.38;;
42294;SDS011;27947;47.556;18.718;2023-04-29T10:37:17;7.72;;;3.65;;
42294;SDS011;27947;47.556;18.718;2023-04-29T10:39:49;9.80;;;4.95;;
42294;SDS011;27947;47.556;18.718;2023-04-29T10:45:16;9.27;;;4.63;;
42294;SDS011;27947;47.556;18.718;2023-04-29T10:48:07;17.13;;;5.47;;
42294;SDS011;27947;47.556;18.718;2023-04-29T10:50:41;14.63;;;5.28;;
42294;SDS011;27947;47.556;18.718;2023-04-29T10:53:23;7.55;;;4.65;;
42294;SDS011;27947;47.556;18.718;2023-04-29T10:55:53;9.75;;;4.60;;
42294;SDS011;27947;47.556;18.718;2023-04-29T10:58:32;10.88;;;4.38;;
42294;SDS011;27947;47.556;18.718;2023-04-29T11:00:59;8.70;;;4.82;;
42294;SDS011;27947;47.556;18.718;2023-04-29T11:06:09;7.57;;;4.15;;
42294;SDS011;27947;47.556;18.718;2023-04-29T11:08:38;8.60;;;4.15;;
42294;SDS011;27947;47.556;18.718;2023-04-29T11:11:04;6.85;;;3.70;;
42294;SDS011;27947;47.556;18.718;2023-04-29T11:13:31;8.40;;;4.40;;
42294;SDS011;27947;47.556;18.718;2023-04-29T11:16:05;11.35;;;4.55;;
42294;SDS011;27947;47.556;18.718;2023-04-29T11:18:30;8.95;;;4.20;;
42294;SDS011;27947;47.556;18.718;2023-04-29T11:23:34;8.35;;;4.30;;
42294;SDS011;27947;47.556;18.718;2023-04-29T11:26:00;9.27;;;4.75;;
42294;SDS011;27947;47.556;18.718;2023-04-29T11:28:29;10.23;;;4.25;;
42294;SDS011;27947;47.556;18.718;2023-04-29T11:30:54;9.75;;;4.70;;
42294;SDS011;27947;47.556;18.718;2023-04-29T11:33:21;8.32;;;4.00;;
42294;SDS011;27947;47.556;18.718;2023-04-29T11:35:46;7.18;;;4.30;;
42294;SDS011;27947;47.556;18.718;2023-04-29T11:38:11;10.75;;;4.97;;
42294;SDS011;27947;47.556;18.718;2023-04-29T11:40:40;7.68;;;4.15;;
42294;SDS011;27947;47.556;18.718;2023-04-29T11:43:06;6.45;;;4.50;;
42294;SDS011;27947;47.556;18.718;2023-04-29T11:45:33;9.85;;;3.50;;
42294;SDS011;27947;47.556;18.718;2023-04-29T11:47:59;7.57;;;3.72;;
42294;SDS011;27947;47.556;18.718;2023-04-29T11:50:25;6.63;;;3.75;;
42294;SDS011;27947;47.556;18.718;2023-04-29T11:52:51;8.32;;;3.90;;
42294;SDS011;27947;47.556;18.718;2023-04-29T11:55:17;8.70;;;3.80;;
42294;SDS011;27947;47.556;18.718;2023-04-29T11:57:43;7.00;;;3.60;;
42294;SDS011;27947;47.556;18.718;2023-04-29T12:00:09;7.13;;;3.58;;
42294;SDS011;27947;47.556;18.718;2023-04-29T12:02:36;8.32;;;3.97;;
42294;SDS011;27947;47.556;18.718;2023-04-29T12:05:05;8.52;;;4.45;;
42294;SDS011;27947;47.556;18.718;2023-04-29T12:07:31;7.45;;;4.45;;
42294;SDS011;27947;47.556;18.718;2023-04-29T12:09:57;5.68;;;3.65;;
42294;SDS011;27947;47.556;18.718;2023-04-29T12:12:22;8.73;;;4.55;;
42294;SDS011;27947;47.556;18.718;2023-04-29T12:14:48;8.57;;;4.25;;
42294;SDS011;27947;47.556;18.718;2023-04-29T12:17:14;8.65;;;4.35;;
42294;SDS011;27947;47.556;18.718;2023-04-29T12:19:39;7.35;;;4.70;;
42294;SDS011;27947;47.556;18.718;2023-04-29T12:22:06;8.52;;;4.60;;
42294;SDS011;27947;47.556;18.718;2023-04-29T12:24:32;9.65;;;4.13;;
42294;SDS011;27947;47.556;18.718;2023-04-29T12:26:59;9.60;;;3.90;;
42294;SDS011;27947;47.556;18.718;2023-04-29T12:29:24;9.68;;;3.85;;
42294;SDS011;27947;47.556;18.718;2023-04-29T12:31:50;6.85;;;4.50;;
42294;SDS011;27947;47.556;18.718;2023-04-29T12:34:15;8.02;;;4.20;;
42294;SDS011;27947;47.556;18.718;2023-04-29T12:36:41;9.82;;;4.85;;
42294;SDS011;27947;47.556;18.718;2023-04-29T12:39:06;8.00;;;4.28;;
42294;SDS011;27947;47.556;18.718;2023-04-29T12:44:02;13.23;;;4.57;;
42294;SDS011;27947;47.556;18.718;2023-04-29T12:46:32;9.88;;;4.65;;
42294;SDS011;27947;47.556;18.718;2023-04-29T12:48:58;9.45;;;4.88;;
42294;SDS011;27947;47.556;18.718;2023-04-29T12:51:26;8.32;;;4.60;;
42294;SDS011;27947;47.556;18.718;2023-04-29T12:53:51;10.55;;;4.20;;
42294;SDS011;27947;47.556;18.718;2023-04-29T12:56:17;7.15;;;4.32;;
42294;SDS011;27947;47.556;18.718;2023-04-29T12:58:42;9.55;;;5.00;;
42294;SDS011;27947;47.556;18.718;2023-04-29T13:01:07;8.73;;;4.38;;
42294;SDS011;27947;47.556;18.718;2023-04-29T13:03:33;8.95;;;3.90;;
42294;SDS011;27947;47.556;18.718;2023-04-29T13:06:00;12.38;;;5.10;;
42294;SDS011;27947;47.556;18.718;2023-04-29T13:08:26;7.95;;;4.30;;
42294;SDS011;27947;47.556;18.718;2023-04-29T13:10:52;7.97;;;4.15;;
42294;SDS011;27947;47.556;18.718;2023-04-29T13:13:17;9.10;;;4.30;;
42294;SDS011;27947;47.556;18.718;2023-04-29T13:15:43;9.10;;;4.47;;
42294;SDS011;27947;47.556;18.718;2023-04-29T13:18:09;7.70;;;4.60;;
42294;SDS011;27947;47.556;18.718;2023-04-29T13:20:34;8.77;;;4.18;;
42294;SDS011;27947;47.556;18.718;2023-04-29T13:22:59;7.22;;;4.00;;
42294;SDS011;27947;47.556;18.718;2023-04-29T13:25:25;7.97;;;4.28;;
42294;SDS011;27947;47.556;18.718;2023-04-29T13:27:50;10.85;;;4.40;;
42294;SDS011;27947;47.556;18.718;2023-04-29T13:30:15;7.32;;;4.07;;
42294;SDS011;27947;47.556;18.718;2023-04-29T13:32:41;9.40;;;4.20;;
42294;SDS011;27947;47.556;18.718;2023-04-29T13:35:07;9.70;;;5.03;;
42294;SDS011;27947;47.556;18.718;2023-04-29T13:37:32;5.85;;;4.05;;
42294;SDS011;27947;47.556;18.718;2023-04-29T13:39:58;8.38;;;3.75;;
42294;SDS011;27947;47.556;18.718;2023-04-29T13:42:23;11.75;;;4.45;;
42294;SDS011;27947;47.556;18.718;2023-04-29T13:44:49;9.65;;;4.75;;
42294;SDS011;27947;47.556;18.718;2023-04-29T13:47:15;8.77;;;3.90;;
42294;SDS011;27947;47.556;18.718;2023-04-29T13:49:41;10.93;;;6.40;;
42294;SDS011;27947;47.556;18.718;2023-04-29T13:52:10;5.70;;;4.28;;
42294;SDS011;27947;47.556;18.718;2023-04-29T13:54:36;8.32;;;4.20;;
42294;SDS011;27947;47.556;18.718;2023-04-29T13:57:01;8.15;;;4.20;;
42294;SDS011;27947;47.556;18.718;2023-04-29T13:59:30;6.18;;;3.80;;
42294;SDS011;27947;47.556;18.718;2023-04-29T14:01:56;7.85;;;4.20;;
42294;SDS011;27947;47.556;18.718;2023-04-29T14:04:22;4.95;;;3.83;;
42294;SDS011;27947;47.556;18.718;2023-04-29T14:06:47;14.57;;;4.95;;
42294;SDS011;27947;47.556;18.718;2023-04-29T14:09:12;6.65;;;3.80;;
42294;SDS011;27947;47.556;18.718;2023-04-29T14:11:38;7.85;;;3.95;;
42294;SDS011;27947;47.556;18.718;2023-04-29T14:14:03;8.38;;;3.60;;
42294;SDS011;27947;47.556;18.718;2023-04-29T14:16:29;7.97;;;3.58;;
42294;SDS011;27947;47.556;18.718;2023-04-29T14:18:54;9.25;;;3.85;;
42294;SDS011;27947;47.556;18.718;2023-04-29T14:21:20;7.38;;;3.72;;
42294;SDS011;27947;47.556;18.718;2023-04-29T14:23:47;7.38;;;3.65;;
42294;SDS011;27947;47.556;18.718;2023-04-29T14:26:13;5.50;;;3.50;;
42294;SDS011;27947;47.556;18.718;2023-04-29T14:28:42;6.35;;;3.25;;
42294;SDS011;27947;47.556;18.718;2023-04-29T14:31:08;6.90;;;3.58;;
42294;SDS011;27947;47.556;18.718;2023-04-29T14:33:38;5.97;;;3.92;;
42294;SDS011;27947;47.556;18.718;2023-04-29T14:36:05;7.15;;;4.07;;
42294;SDS011;27947;47.556;18.718;2023-04-29T14:38:31;8.13;;;3.75;;
42294;SDS011;27947;47.556;18.718;2023-04-29T14:40:57;10.80;;;3.50;;
42294;SDS011;27947;47.556;18.718;2023-04-29T14:43:22;9.80;;;3.95;;
42294;SDS011;27947;47.556;18.718;2023-04-29T14:45:47;5.75;;;3.30;;
42294;SDS011;27947;47.556;18.718;2023-04-29T14:48:13;5.45;;;3.53;;
42294;SDS011;27947;47.556;18.718;2023-04-29T14:50:38;11.65;;;4.00;;
42294;SDS011;27947;47.556;18.718;2023-04-29T14:53:04;6.40;;;3.45;;
42294;SDS011;27947;47.556;18.718;2023-04-29T14:55:31;7.97;;;3.78;;